Time;durP1;ratioP1;P1;durP2;ratioP2;P2;SDS_P1;SDS_P2;PMS_P1;PMS_P2;Temp;Humidity;BMP_temperature;BMP_pressure;BME280_temperature;BME280_humidity;BME280_pressure;Samples;Min_cycle;Max_cycle;Signal;HPM_P1;HPM_P2
2023/08/16 00:01:10;;;;;;;0.40;0.32;;;;;;;17.64;100.00;100323.03;7401005;19;20015;-58
2023/08/16 00:03:37;;;;;;;0.40;0.40;;;;;;;17.57;100.00;100322.78;7398776;19;20339;-58
2023/08/16 00:06:10;;;;;;;1.17;0.93;;;;;;;17.47;100.00;100330.69;7398458;19;20018;-58
2023/08/16 00:08:36;;;;;;;0.73;0.73;;;;;;;17.40;100.00;100328.38;7396404;19;20011;-58
2023/08/16 00:11:03;;;;;;;0.38;0.38;;;;;;;17.28;100.00;100321.97;7400352;19;20021;-59
2023/08/16 00:13:29;;;;;;;1.08;0.30;;;;;;;17.24;100.00;100334.75;7398627;19;20471;-58
2023/08/16 00:15:56;;;;;;;0.10;0.10;;;;;;;17.16;100.00;100339.34;7399430;19;20018;-58
2023/08/16 00:18:22;;;;;;;0.65;0.65;;;;;;;17.13;100.00;100334.75;7396683;19;20017;-58
2023/08/16 00:20:48;;;;;;;0.40;0.40;;;;;;;17.10;100.00;100335.75;7397806;19;20032;-58
2023/08/16 00:23:14;;;;;;;1.00;0.40;;;;;;;16.81;100.00;100327.75;7396823;19;20024;-58
2023/08/16 00:25:41;;;;;;;1.27;0.75;;;;;;;16.84;100.00;100330.34;7398535;19;20038;-57
2023/08/16 00:28:07;;;;;;;0.40;0.40;;;;;;;16.85;100.00;100331.13;7396953;19;20030;-57
2023/08/16 00:30:34;;;;;;;0.38;0.38;;;;;;;16.66;100.00;100330.78;7398145;19;20034;-58
2023/08/16 00:33:01;;;;;;;0.60;0.52;;;;;;;16.58;100.00;100330.50;7396132;19;20321;-58
2023/08/16 00:35:27;;;;;;;0.40;0.40;;;;;;;16.76;100.00;100322.91;7396545;19;20018;-58
2023/08/16 00:37:53;;;;;;;1.98;0.85;;;;;;;16.81;100.00;100330.56;7397660;19;20467;-58
2023/08/16 00:40:20;;;;;;;0.45;0.45;;;;;;;16.57;100.00;100328.19;7397130;19;20453;-58
2023/08/16 00:42:46;;;;;;;0.52;0.32;;;;;;;16.62;100.00;100322.59;7398095;19;20006;-58
2023/08/16 00:45:12;;;;;;;0.45;0.45;;;;;;;16.58;100.00;100330.50;7398767;19;20021;-58
2023/08/16 00:47:39;;;;;;;3.03;0.45;;;;;;;16.59;100.00;100331.25;7397446;19;20066;-58
2023/08/16 00:50:06;;;;;;;1.40;0.98;;;;;;;16.58;100.00;100329.72;7396199;19;20021;-58
2023/08/16 00:52:32;;;;;;;0.38;0.38;;;;;;;16.57;100.00;100337.41;7397700;19;20015;-58
2023/08/16 00:54:59;;;;;;;0.30;0.20;;;;;;;16.70;100.00;100330.56;7396305;19;20015;-59
2023/08/16 00:57:25;;;;;;;0.38;0.30;;;;;;;16.73;100.00;100332.34;7395550;19;20459;-58
2023/08/16 00:59:51;;;;;;;0.57;0.35;;;;;;;16.72;100.00;100336.44;7397331;19;20011;-58
2023/08/16 01:02:19;;;;;;;0.20;0.20;;;;;;;16.64;100.00;100344.56;7401426;19;20023;-58
2023/08/16 01:04:46;;;;;;;3.60;0.50;;;;;;;16.62;100.00;100347.13;7397974;19;20074;-58
2023/08/16 01:07:14;;;;;;;2.08;0.70;;;;;;;15.42;100.00;100343.75;7397310;19;20011;-58
2023/08/16 01:09:40;;;;;;;2.08;0.80;;;;;;;16.98;100.00;100345.47;7395652;19;20010;-58
2023/08/16 01:12:29;;;;;;;0.95;0.55;;;;;;;16.63;100.00;100343.06;7400492;19;20019;-58
2023/08/16 01:15:00;;;;;;;0.10;0.10;;;;;;;16.57;100.00;100342.25;7396186;19;20035;-59
2023/08/16 01:17:27;;;;;;;1.95;0.90;;;;;;;16.60;100.00;100350.47;7397112;19;20018;-58
2023/08/16 01:19:57;;;;;;;0.38;0.38;;;;;;;16.70;100.00;100350.25;7395154;19;20106;-58
2023/08/16 01:22:42;;;;;;;0.30;0.30;;;;;;;16.81;100.00;100348.22;7399713;19;20014;-58
2023/08/16 01:25:48;;;;;;;2.15;0.90;;;;;;;16.85;100.00;100342.38;7396052;19;20339;-59
2023/08/16 01:28:14;;;;;;;0.20;0.20;;;;;;;16.77;100.00;100346.91;7392738;19;20006;-58
2023/08/16 01:30:45;;;;;;;1.33;0.70;;;;;;;16.81;100.00;100353.84;7394839;19;20429;-58
2023/08/16 01:33:13;;;;;;;0.35;0.30;;;;;;;16.85;100.00;100356.44;7392707;19;20010;-58
2023/08/16 01:35:41;;;;;;;0.43;0.43;;;;;;;16.90;100.00;100350.81;7394120;19;20007;-58
2023/08/16 01:38:10;;;;;;;0.38;0.38;;;;;;;19.41;100.00;100353.41;7397437;19;20033;-58
2023/08/16 01:41:10;;;;;;;0.20;0.20;;;;;;;17.32;100.00;100349.88;7394802;19;20006;-58
2023/08/16 01:43:38;;;;;;;0.30;0.13;;;;;;;19.65;100.00;100353.50;7394046;19;20022;-58
2023/08/16 01:46:06;;;;;;;0.88;0.28;;;;;;;17.18;100.00;100360.09;7396506;19;20380;-58
2023/08/16 01:48:34;;;;;;;0.20;0.20;;;;;;;17.18;100.00;100354.47;7393751;19;20024;-58
2023/08/16 01:51:00;;;;;;;0.85;0.85;;;;;;;17.43;100.00;100364.72;7393074;19;20027;-58
2023/08/16 01:53:26;;;;;;;0.43;0.43;;;;;;;16.70;100.00;100355.88;7398295;19;20007;-58
2023/08/16 01:55:53;;;;;;;1.55;0.68;;;;;;;15.65;100.00;100362.38;7393554;19;20014;-58
2023/08/16 01:58:19;;;;;;;0.45;0.28;;;;;;;16.80;100.00;100362.78;7393859;19;20073;-58
2023/08/16 02:00:47;;;;;;;1.13;0.30;;;;;;;16.66;100.00;100354.06;7394226;19;20365;-58
2023/08/16 02:03:13;;;;;;;0.85;0.32;;;;;;;16.71;100.00;100354.56;7397348;19;20372;-58
2023/08/16 02:05:41;;;;;;;1.00;0.30;;;;;;;16.44;100.00;100358.75;7393044;19;20018;-57
2023/08/16 02:08:10;;;;;;;0.40;0.40;;;;;;;15.82;100.00;100359.69;7391945;19;20507;-58
2023/08/16 02:10:37;;;;;;;0.83;0.63;;;;;;;13.71;100.00;100361.22;7394872;19;20476;-58
2023/08/16 02:13:04;;;;;;;1.05;0.32;;;;;;;16.16;100.00;100355.81;7398087;19;20491;-59
2023/08/16 02:15:30;;;;;;;0.20;0.20;;;;;;;16.95;100.00;100363.34;7394720;19;20038;-58
2023/08/16 02:17:57;;;;;;;0.50;0.15;;;;;;;17.04;100.00;100355.47;7394419;19;20030;-58
2023/08/16 02:20:23;;;;;;;0.43;0.30;;;;;;;17.16;100.00;100357.00;7393321;19;20014;-58
2023/08/16 02:22:49;;;;;;;0.32;0.30;;;;;;;17.24;100.00;100357.28;7395584;19;20492;-58
2023/08/16 02:25:16;;;;;;;0.30;0.30;;;;;;;17.28;100.00;100360.63;7393857;19;20018;-58
2023/08/16 02:27:42;;;;;;;0.40;0.35;;;;;;;18.92;100.00;100357.31;7394315;19;20029;-59
2023/08/16 02:30:09;;;;;;;0.90;0.82;;;;;;;17.50;100.00;100351.44;7394912;19;20010;-58
2023/08/16 02:32:36;;;;;;;0.20;0.20;;;;;;;17.26;100.00;100355.47;7395614;19;20103;-58
2023/08/16 02:35:03;;;;;;;0.30;0.30;;;;;;;17.20;100.00;100353.94;7390425;19;20014;-80
2023/08/16 02:37:30;;;;;;;0.30;0.30;;;;;;;17.39;100.00;100360.63;7381556;19;20552;-81
2023/08/16 02:39:57;;;;;;;0.32;0.32;;;;;;;17.62;100.00;100364.25;7383651;19;20022;-81
2023/08/16 02:42:23;;;;;;;1.05;0.22;;;;;;;17.75;100.00;100359.66;7389997;19;20010;-81
2023/08/16 02:44:50;;;;;;;0.10;0.10;;;;;;;25.12;100.00;100354.81;7386300;19;20014;-81
2023/08/16 02:47:16;;;;;;;0.45;0.30;;;;;;;20.46;100.00;100357.34;7389831;19;20018;-81
2023/08/16 02:49:43;;;;;;;2.22;0.65;;;;;;;17.94;100.00;100360.66;7389604;19;20033;-80
2023/08/16 02:52:09;;;;;;;4.15;0.57;;;;;;;17.72;100.00;100359.91;7390365;19;20042;-81
2023/08/16 02:54:36;;;;;;;0.55;0.38;;;;;;;23.01;100.00;100350.28;7389536;19;20041;-81
2023/08/16 02:57:02;;;;;;;0.50;0.40;;;;;;;29.93;78.49;100345.16;7391659;19;20010;-81
2023/08/16 02:59:42;;;;;;;0.85;0.50;;;;;;;20.17;100.00;100358.16;7388994;19;20021;-80
2023/08/16 03:02:08;;;;;;;0.57;0.30;;;;;;;13.51;100.00;100362.66;7390797;19;20044;-80
2023/08/16 03:04:39;;;;;;;0.15;0.10;;;;;;;14.51;100.00;100355.75;7388456;19;20053;-80
2023/08/16 03:07:09;;;;;;;2.50;0.63;;;;;;;13.22;100.00;100371.06;7392019;19;20048;-80
2023/08/16 03:09:36;;;;;;;2.40;0.20;;;;;;;12.21;100.00;100371.53;7388235;19;20019;-80
2023/08/16 03:12:03;;;;;;;0.40;0.20;;;;;;;13.23;100.00;100367.00;7391476;19;20014;-81
2023/08/16 03:14:29;;;;;;;0.20;0.10;;;;;;;12.88;100.00;100363.28;7389537;19;20084;-82
2023/08/16 03:16:59;;;;;;;19.45;0.75;;;;;;;12.38;100.00;100364.28;7392519;19;20063;-80
2023/08/16 03:19:26;;;;;;;0.68;0.20;;;;;;;12.86;100.00;100365.78;7388152;19;20010;-81
2023/08/16 03:21:54;;;;;;;1.65;0.40;;;;;;;12.17;100.00;100366.88;7390170;19;20014;-80
2023/08/16 03:24:21;;;;;;;0.17;0.10;;;;;;;11.65;100.00;100370.19;7389653;19;20019;-81
2023/08/16 03:26:47;;;;;;;0.55;0.25;;;;;;;11.78;100.00;100373.56;7388205;19;20014;-81
2023/08/16 03:29:14;;;;;;;0.82;0.38;;;;;;;11.79;100.00;100372.34;7387080;19;20018;-81
2023/08/16 03:31:40;;;;;;;1.45;0.43;;;;;;;12.36;100.00;100372.34;7388727;19;20544;-81
2023/08/16 03:34:06;;;;;;;0.20;0.10;;;;;;;12.22;100.00;100368.25;7388894;19;20014;-81
2023/08/16 03:36:33;;;;;;;0.20;0.10;;;;;;;12.41;100.00;100368.91;7388504;19;20036;-81
2023/08/16 03:39:05;;;;;;;1.17;0.30;;;;;;;12.96;100.00;100358.84;7388948;19;20010;-81
2023/08/16 03:41:33;;;;;;;0.20;0.20;;;;;;;12.90;100.00;100363.56;7390963;19;20474;-81
2023/08/16 03:44:00;;;;;;;2.22;0.50;;;;;;;15.97;100.00;100354.69;7389519;19;20023;-81
2023/08/16 03:46:26;;;;;;;0.85;0.40;;;;;;;14.42;100.00;100355.91;7392826;19;20029;-81
2023/08/16 03:48:52;;;;;;;0.73;0.50;;;;;;;16.05;100.00;100355.00;7386462;19;20015;-80
2023/08/16 03:51:19;;;;;;;2.65;0.55;;;;;;;17.03;100.00;100358.75;7388244;19;20019;-81
2023/08/16 03:53:45;;;;;;;0.20;0.20;;;;;;;18.07;100.00;100349.63;7389227;19;20035;-81
2023/08/16 03:56:11;;;;;;;0.80;0.52;;;;;;;17.76;100.00;100361.19;7392287;19;20022;-81
2023/08/16 03:58:37;;;;;;;0.55;0.15;;;;;;;18.31;100.00;100356.72;7393950;19;20436;-81
2023/08/16 04:01:03;;;;;;;0.77;0.50;;;;;;;17.99;100.00;100359.13;7394886;19;20014;-81
2023/08/16 04:03:30;;;;;;;0.57;0.30;;;;;;;18.00;100.00;100364.22;7399177;19;20021;-81
2023/08/16 04:05:56;;;;;;;0.40;0.20;;;;;;;18.03;100.00;100360.41;7394465;19;20022;-81
2023/08/16 04:08:22;;;;;;;1.38;0.47;;;;;;;18.02;100.00;100364.47;7398449;19;20049;-80
2023/08/16 04:10:49;;;;;;;0.52;0.35;;;;;;;17.99;100.00;100359.91;7397003;19;20018;-81
2023/08/16 04:13:16;;;;;;;0.52;0.52;;;;;;;18.03;100.00;100368.06;7398070;19;20077;-81
2023/08/16 04:15:43;;;;;;;0.45;0.30;;;;;;;18.01;100.00;100370.66;7398269;19;20015;-81
2023/08/16 04:18:09;;;;;;;0.82;0.20;;;;;;;17.95;100.00;100369.88;7395223;19;20089;-81
2023/08/16 04:20:35;;;;;;;7.03;0.95;;;;;;;17.91;100.00;100370.13;7394829;19;20480;-80
2023/08/16 04:23:02;;;;;;;0.38;0.38;;;;;;;17.80;100.00;100370.13;7399354;19;20014;-81
2023/08/16 04:25:28;;;;;;;0.20;0.10;;;;;;;17.86;100.00;100370.91;7392623;19;20022;-80
2023/08/16 04:27:54;;;;;;;1.48;0.30;;;;;;;17.83;100.00;100373.97;7393043;19;20476;-80
2023/08/16 04:30:22;;;;;;;0.47;0.30;;;;;;;17.83;100.00;100371.94;7392736;19;20057;-80
2023/08/16 04:32:48;;;;;;;0.50;0.28;;;;;;;17.86;100.00;100375.78;7396693;19;20025;-80
2023/08/16 04:35:14;;;;;;;0.40;0.30;;;;;;;17.82;100.00;100378.84;7392431;19;20485;-81
2023/08/16 04:37:40;;;;;;;1.35;0.30;;;;;;;17.88;100.00;100374.00;7394019;19;20041;-80
2023/08/16 04:40:07;;;;;;;1.20;0.85;;;;;;;18.35;100.00;100374.16;7394642;19;20018;-80
2023/08/16 04:42:34;;;;;;;0.93;0.55;;;;;;;19.13;100.00;100381.03;7395396;19;20018;-81
2023/08/16 04:45:03;;;;;;;0.45;0.45;;;;;;;16.58;100.00;100381.13;7392971;19;20011;-81
2023/08/16 04:47:31;;;;;;;0.20;0.20;;;;;;;22.86;100.00;100376.44;7393979;19;20485;-81
2023/08/16 04:49:58;;;;;;;0.52;0.52;;;;;;;16.67;100.00;100383.69;7392974;19;20037;-81
2023/08/16 04:52:24;;;;;;;0.30;0.20;;;;;;;14.95;100.00;100380.75;7395560;19;20496;-81
2023/08/16 04:54:50;;;;;;;1.38;0.40;;;;;;;14.02;100.00;100381.03;7391872;19;20022;-81
2023/08/16 04:57:17;;;;;;;0.40;0.40;;;;;;;13.93;100.00;100383.94;7392436;19;20023;-81
2023/08/16 04:59:44;;;;;;;5.82;0.47;;;;;;;13.40;100.00;100384.88;7393175;19;20014;-81
2023/08/16 05:02:10;;;;;;;0.85;0.20;;;;;;;12.81;100.00;100386.00;7392311;19;20110;-80
2023/08/16 06:06:56;;;;;;;0.90;0.22;;;;;;;19.12;100.00;100412.63;7223512;19;3048124;-53
2023/08/16 06:09:22;;;;;;;0.88;0.45;;;;;;;18.52;100.00;100411.56;7433723;19;20370;-53
2023/08/16 06:11:48;;;;;;;1.40;0.93;;;;;;;19.60;100.00;100410.03;7431231;19;20017;-53
2023/08/16 06:14:15;;;;;;;1.08;0.47;;;;;;;19.61;100.00;100406.72;7428654;19;20018;-53
2023/08/16 06:16:41;;;;;;;3.65;1.55;;;;;;;20.02;100.00;100417.16;7433394;19;20146;-53
2023/08/16 06:19:08;;;;;;;0.82;0.47;;;;;;;27.62;100.00;100401.81;7429957;19;20017;-54
2023/08/16 06:21:34;;;;;;;0.57;0.57;;;;;;;19.17;100.00;100412.59;7429604;19;20073;-52
2023/08/16 06:24:01;;;;;;;0.95;0.13;;;;;;;20.01;100.00;100412.81;7430223;19;20038;-53
2023/08/16 06:26:27;;;;;;;0.85;0.55;;;;;;;25.48;100.00;100415.44;7429747;19;20085;-53
2023/08/16 06:28:53;;;;;;;3.03;0.95;;;;;;;28.44;88.82;100398.88;7433447;19;20015;-53
2023/08/16 06:31:19;;;;;;;9.00;1.10;;;;;;;22.38;100.00;100410.91;7428357;19;20027;-53
2023/08/16 06:33:45;;;;;;;1.75;0.73;;;;;;;23.05;100.00;100411.16;7431765;19;20043;-53
2023/08/16 06:36:12;;;;;;;2.80;0.93;;;;;;;19.62;100.00;100416.69;7425666;19;20462;-53
2023/08/16 06:38:39;;;;;;;0.32;0.30;;;;;;;18.95;100.00;100417.59;7430215;19;20011;-53
2023/08/16 06:41:05;;;;;;;0.63;0.20;;;;;;;18.58;100.00;100415.91;7433779;19;20018;-53
2023/08/16 06:43:31;;;;;;;13.73;0.70;;;;;;;20.82;100.00;100423.81;7429079;19;20029;-53
2023/08/16 06:45:57;;;;;;;0.57;0.38;;;;;;;18.04;100.00;100426.75;7428276;19;20324;-54
2023/08/16 06:48:23;;;;;;;2.72;0.70;;;;;;;17.43;100.00;100428.75;7429162;19;20031;-53
2023/08/16 06:50:50;;;;;;;1.00;0.28;;;;;;;17.05;100.00;100421.72;7427654;19;20413;-53
2023/08/16 06:53:16;;;;;;;0.57;0.17;;;;;;;17.18;100.00;100415.59;7429780;19;20010;-53
2023/08/16 06:55:42;;;;;;;3.50;0.85;;;;;;;17.68;100.00;100418.53;7426759;19;20016;-53
2023/08/16 06:58:08;;;;;;;1.40;0.25;;;;;;;17.77;100.00;100423.94;7427475;19;20081;-53
2023/08/16 07:00:34;;;;;;;2.35;0.40;;;;;;;18.37;100.00;100416.69;7428614;19;20021;-53
2023/08/16 07:03:02;;;;;;;1.75;0.50;;;;;;;18.39;100.00;100411.31;7427638;19;20025;-53
2023/08/16 07:05:28;;;;;;;2.03;0.38;;;;;;;18.18;100.00;100411.63;7428229;19;20466;-53
2023/08/16 07:07:55;;;;;;;1.77;0.43;;;;;;;18.87;100.00;100414.53;7398842;19;20335;-53
2023/08/16 07:10:21;;;;;;;0.85;0.47;;;;;;;22.79;100.00;100418.94;7399386;19;20021;-53
2023/08/16 07:12:47;;;;;;;1.15;0.38;;;;;;;33.93;79.59;100412.50;7398820;19;20011;-53
2023/08/16 07:15:14;;;;;;;1.25;0.60;;;;;;;26.10;100.00;100422.78;7397443;19;20046;-53
2023/08/16 07:17:40;;;;;;;1.83;0.40;;;;;;;24.33;100.00;100416.66;7398975;19;20007;-53
2023/08/16 07:20:10;;;;;;;3.47;0.68;;;;;;;26.91;100.00;100416.78;7398903;19;20034;-52
2023/08/16 07:22:39;;;;;;;0.45;0.45;;;;;;;33.67;78.74;100419.50;7402229;19;20105;-54
2023/08/16 07:25:08;;;;;;;3.50;0.80;;;;;;;24.31;100.00;100425.00;7402088;19;20083;-53
2023/08/16 07:27:34;;;;;;;1.70;0.65;;;;;;;25.43;100.00;100436.31;7402358;19;20014;-54
2023/08/16 07:30:00;;;;;;;1.35;0.25;;;;;;;20.59;100.00;100439.53;7398549;19;20022;-54
2023/08/16 07:32:27;;;;;;;2.05;0.50;;;;;;;20.03;100.00;100432.84;7397748;19;20014;-53
2023/08/16 07:34:53;;;;;;;5.57;0.57;;;;;;;31.78;93.89;100419.56;7396081;19;20043;-53
2023/08/16 07:37:21;;;;;;;0.60;0.30;;;;;;;20.70;100.00;100435.81;7398449;19;20076;-53
2023/08/16 07:39:47;;;;;;;0.90;0.20;;;;;;;20.31;100.00;100431.31;7398012;19;20536;-53
2023/08/16 07:42:13;;;;;;;4.82;0.50;;;;;;;19.83;100.00;100441.75;7398534;19;20029;-53
2023/08/16 07:44:39;;;;;;;1.08;0.57;;;;;;;20.35;100.00;100437.47;7397906;19;20037;-53
2023/08/16 07:47:06;;;;;;;2.72;0.38;;;;;;;28.17;100.00;100430.28;7397070;19;20038;-52
2023/08/16 07:49:32;;;;;;;1.42;0.57;;;;;;;27.52;100.00;100440.22;7398855;19;20018;-53
2023/08/16 07:51:58;;;;;;;2.10;0.35;;;;;;;21.64;100.00;100446.69;7397961;19;20006;-53
2023/08/16 07:54:25;;;;;;;5.28;0.30;;;;;;;21.22;100.00;100449.63;7396684;19;20077;-53
2023/08/16 07:56:52;;;;;;;2.30;0.63;;;;;;;20.94;100.00;100447.84;7397047;19;20018;-53
2023/08/16 07:59:18;;;;;;;1.58;0.82;;;;;;;22.91;100.00;100440.13;7398693;19;20013;-53
2023/08/16 08:01:45;;;;;;;2.63;0.30;;;;;;;28.79;100.00;100432.00;7397268;19;20308;-53
2023/08/16 08:04:11;;;;;;;1.00;0.50;;;;;;;34.74;77.47;100430.56;7397198;19;20350;-53
2023/08/16 08:06:37;;;;;;;4.95;0.50;;;;;;;35.46;67.75;100436.22;7397864;19;20010;-53
2023/08/16 08:09:04;;;;;;;1.50;0.43;;;;;;;35.35;62.58;100440.69;7400008;19;20027;-54
2023/08/16 08:11:30;;;;;;;1.13;0.50;;;;;;;29.29;87.40;100441.19;7397071;19;20022;-54
2023/08/16 08:13:59;;;;;;;0.17;0.08;;;;;;;31.93;87.18;100435.72;7397225;19;20493;-54
2023/08/16 08:16:26;;;;;;;0.93;0.40;;;;;;;33.90;71.34;100443.41;7394341;19;20014;-53
2023/08/16 08:18:52;;;;;;;0.20;0.20;;;;;;;32.53;72.62;100437.16;7395033;19;20021;-52
2023/08/16 08:21:18;;;;;;;0.25;0.10;;;;;;;23.68;100.00;100452.66;7396167;19;20336;-52
2023/08/16 08:23:44;;;;;;;0.20;0.20;;;;;;;22.63;100.00;100448.44;7396386;19;20014;-52
2023/08/16 08:26:10;;;;;;;0.82;0.47;;;;;;;22.11;100.00;100449.06;7395694;19;20011;-52
2023/08/16 08:28:37;;;;;;;0.35;0.20;;;;;;;22.21;100.00;100448.13;7394861;19;20018;-90
2023/08/16 08:31:03;;;;;;;0.85;0.35;;;;;;;27.67;100.00;100443.75;7400484;19;20389;-90
2023/08/16 08:33:30;;;;;;;0.57;0.32;;;;;;;33.24;86.54;100442.72;7398749;19;20356;-90
2023/08/16 08:35:58;;;;;;;0.65;0.30;;;;;;;36.54;66.60;100440.81;7397105;19;20026;-90
2023/08/16 08:38:24;;;;;;;0.55;0.22;;;;;;;36.25;66.79;100447.22;7399986;19;20018;-91
2023/08/16 08:40:58;;;;;;;2.90;0.35;;;;;;;27.90;98.51;100455.06;7398269;19;20022;-89
2023/08/16 08:43:32;;;;;;;0.30;0.20;;;;;;;26.31;100.00;100454.78;7398653;19;20038;-91
2023/08/16 08:45:59;;;;;;;0.10;0.10;;;;;;;21.97;100.00;100456.00;7397825;19;20023;-92
2023/08/16 08:48:27;;;;;;;0.20;0.10;;;;;;;22.99;100.00;100458.03;7398951;19;20022;-90
2023/08/16 08:50:54;;;;;;;1.60;0.22;;;;;;;21.32;100.00;100460.03;7397889;19;20376;-90
2023/08/16 08:53:21;;;;;;;0.85;0.30;;;;;;;24.83;100.00;100458.81;7397305;19;20041;-89
2023/08/16 08:55:50;;;;;;;0.50;0.50;;;;;;;24.52;100.00;100454.19;7397513;19;20019;-90
2023/08/16 08:58:17;;;;;;;0.47;0.20;;;;;;;24.09;100.00;100455.56;7396869;19;20480;-89
2023/08/16 09:00:44;;;;;;;2.30;0.40;;;;;;;34.61;83.77;100447.84;7399014;19;20357;-90
2023/08/16 09:03:12;;;;;;;1.08;0.50;;;;;;;30.46;84.19;100456.34;7399749;19;20026;-90
2023/08/16 09:05:44;;;;;;;2.15;0.22;;;;;;;25.39;100.00;100458.72;7398129;19;20003;-90
2023/08/16 09:08:13;;;;;;;0.88;0.70;;;;;;;25.65;100.00;100468.34;7399224;19;20014;-89
2023/08/16 09:10:40;;;;;;;1.23;0.47;;;;;;;25.52;100.00;100461.47;7397790;19;20038;-88
2023/08/16 09:13:09;;;;;;;1.10;0.22;;;;;;;29.48;100.00;100461.41;7398512;19;20330;-91
2023/08/16 09:15:36;;;;;;;0.57;0.30;;;;;;;27.11;100.00;100466.50;7398014;19;20010;-89
2023/08/16 09:18:29;;;;;;;0.60;0.30;;;;;;;27.27;100.00;100468.72;7396630;19;20258;-89
2023/08/16 09:20:58;;;;;;;0.30;0.10;;;;;;;24.84;100.00;100480.28;7395849;19;20015;-88
2023/08/16 09:23:25;;;;;;;0.63;0.30;;;;;;;31.85;76.84;100463.97;7398311;19;20014;-87
2023/08/16 09:25:51;;;;;;;0.70;0.20;;;;;;;25.72;100.00;100468.38;7397289;19;20014;-89
2023/08/16 09:28:19;;;;;;;0.88;0.30;;;;;;;33.39;86.60;100458.84;7396226;19;20086;-89
2023/08/16 09:30:45;;;;;;;0.30;0.20;;;;;;;39.36;54.46;100457.88;7395922;19;20006;-86
2023/08/16 09:33:17;;;;;;;0.47;0.00;;;;;;;33.71;60.30;100460.97;7393806;19;20006;-86
2023/08/16 09:35:49;;;;;;;1.35;0.17;;;;;;;28.89;83.18;100467.25;7393974;19;20018;-87
2023/08/16 09:38:20;;;;;;;0.20;0.20;;;;;;;36.52;68.40;100453.03;7397656;19;20047;-87
2023/08/16 09:40:50;;;;;;;0.20;0.20;;;;;;;32.29;67.02;100458.53;7402098;19;20026;-87
2023/08/16 09:43:20;;;;;;;0.10;0.10;;;;;;;24.76;100.00;100462.38;7398955;19;20010;-84
2023/08/16 09:45:48;;;;;;;0.65;0.20;;;;;;;24.49;100.00;100464.66;7395541;19;20029;-84
2023/08/16 09:48:15;;;;;;;0.10;0.10;;;;;;;25.51;100.00;100465.63;7395757;19;20347;-83
2023/08/16 09:50:41;;;;;;;0.10;0.00;;;;;;;26.15;100.00;100454.00;7396525;19;20014;-84
2023/08/16 09:53:07;;;;;;;0.45;0.32;;;;;;;26.68;100.00;100453.97;7397106;19;20010;-84
2023/08/16 09:55:35;;;;;;;0.28;0.20;;;;;;;26.83;100.00;100456.81;7397509;19;20014;-84
2023/08/16 09:58:02;;;;;;;0.10;0.10;;;;;;;26.10;100.00;100463.50;7397494;19;20019;-85
2023/08/16 10:00:29;;;;;;;0.10;0.10;;;;;;;26.16;100.00;100458.38;7398481;19;20039;-85
2023/08/16 10:02:58;;;;;;;0.10;0.10;;;;;;;26.33;100.00;100462.78;7395428;19;20018;-90
2023/08/16 10:05:27;;;;;;;0.45;0.10;;;;;;;26.31;100.00;100460.50;7394268;19;20074;-90
2023/08/16 10:08:00;;;;;;;0.45;0.00;;;;;;;26.39;100.00;100458.38;7395206;19;20023;-88
2023/08/16 10:10:30;;;;;;;1.70;0.10;;;;;;;26.36;100.00;100453.06;7398020;19;20010;-88
2023/08/16 10:12:56;;;;;;;1.17;0.20;;;;;;;26.23;100.00;100465.41;7394335;19;20074;-87
2023/08/16 10:15:24;;;;;;;0.00;0.00;;;;;;;26.13;100.00;100464.47;7392161;19;20023;-88
2023/08/16 10:17:52;;;;;;;0.93;0.20;;;;;;;26.10;100.00;100459.88;7392106;19;20047;-89
2023/08/16 10:20:26;;;;;;;3.45;0.10;;;;;;;26.09;100.00;100467.72;7397671;19;20456;-89
2023/08/16 10:23:03;;;;;;;0.40;0.10;;;;;;;26.12;100.00;100452.28;7394281;19;20022;-89
2023/08/16 10:25:38;;;;;;;0.10;0.00;;;;;;;26.13;100.00;100461.63;7395914;19;20118;-88
2023/08/16 10:28:07;;;;;;;0.73;0.10;;;;;;;26.05;100.00;100455.84;7396935;19;20018;-89
2023/08/16 10:30:35;;;;;;;0.75;0.30;;;;;;;26.10;100.00;100457.03;7397767;19;20011;-91
2023/08/16 10:33:09;;;;;;;0.57;0.32;;;;;;;25.92;100.00;100453.19;7395166;19;20022;-92
2023/08/16 10:35:38;;;;;;;0.20;0.00;;;;;;;25.75;100.00;100452.22;7398728;19;20486;-95
2023/08/16 10:38:04;;;;;;;0.90;0.32;;;;;;;26.09;100.00;100453.44;7398182;19;20074;-91
2023/08/16 10:40:30;;;;;;;0.38;0.10;;;;;;;28.56;92.62;100445.78;7399054;19;20025;-92
2023/08/16 10:42:58;;;;;;;0.40;0.15;;;;;;;37.48;66.79;100444.91;7402256;19;20022;-93
2023/08/16 10:45:28;;;;;;;0.10;0.00;;;;;;;39.65;52.06;100445.97;7400072;19;20337;-92
2023/08/16 10:47:55;;;;;;;1.20;0.30;;;;;;;33.03;59.53;100450.66;7399376;19;20015;-90
2023/08/16 10:50:33;;;;;;;0.10;0.10;;;;;;;30.84;73.64;100450.66;7404650;19;20506;-91
2023/08/16 10:56:44;;;;;;;0.10;0.10;;;;;;;27.23;91.87;100444.69;7395991;19;20074;-58
2023/08/16 10:59:12;;;;;;;0.10;0.00;;;;;;;26.10;100.00;100446.38;7398568;19;20021;-86
2023/08/16 11:01:50;;;;;;;0.13;0.00;;;;;;;33.54;82.36;100430.28;7392096;19;20018;-87
2023/08/16 11:04:42;;;;;;;;;;;;;;;;;;;;;
2023/08/16 11:07:29;;;;;;;0.20;0.10;;;;;;;26.88;95.31;100447.28;7396056;19;20032;-53
2023/08/16 11:10:00;;;;;;;0.40;0.15;;;;;;;26.33;98.67;100452.13;7397843;19;20038;-54
2023/08/16 11:12:30;;;;;;;0.38;0.20;;;;;;;27.32;98.36;100455.53;7395991;19;20007;-54
2023/08/16 11:14:58;;;;;;;0.40;0.20;;;;;;;27.98;89.27;100452.19;7394284;19;20015;-54
2023/08/16 11:17:28;;;;;;;1.08;0.30;;;;;;;23.61;100.00;100450.50;7396345;19;20080;-54
2023/08/16 11:19:55;;;;;;;0.10;0.00;;;;;;;24.91;100.00;100453.91;7400326;19;20010;-54
2023/08/16 11:22:22;;;;;;;0.10;0.10;;;;;;;22.75;100.00;100456.19;7398449;19;20010;-54
2023/08/16 11:24:49;;;;;;;0.10;0.00;;;;;;;26.34;100.00;100453.63;7396994;19;20055;-54
2023/08/16 11:27:21;;;;;;;0.05;0.00;;;;;;;27.34;100.00;100450.00;7397030;19;20011;-53
2023/08/16 11:29:51;;;;;;;0.20;0.10;;;;;;;24.94;100.00;100458.50;7399377;19;20041;-53
2023/08/16 11:32:31;;;;;;;0.45;0.10;;;;;;;31.15;79.42;100445.88;7396789;19;20453;-53
2023/08/16 11:34:57;;;;;;;0.10;0.10;;;;;;;28.16;95.27;100451.66;7394939;19;20066;-53
2023/08/16 11:37:24;;;;;;;0.10;0.00;;;;;;;26.20;100.00;100455.16;7395845;19;20019;-53
2023/08/16 11:40:00;;;;;;;0.45;0.00;;;;;;;25.08;100.00;100457.06;7398710;19;20010;-56
2023/08/16 11:42:28;;;;;;;1.08;0.28;;;;;;;24.72;100.00;100465.56;7397746;19;20383;-56
2023/08/16 11:44:55;;;;;;;0.10;0.10;;;;;;;27.87;100.00;100450.50;7396530;19;20014;-57
2023/08/16 11:47:23;;;;;;;0.20;0.20;;;;;;;27.49;99.34;100450.72;7398598;19;20023;-54
2023/08/16 11:49:50;;;;;;;0.35;0.00;;;;;;;32.83;79.86;100439.22;7399971;19;20355;-53
2023/08/16 11:52:23;;;;;;;0.30;0.20;;;;;;;29.41;86.30;100452.91;7396160;19;20025;-53
2023/08/16 11:55:07;;;;;;;0.10;0.00;;;;;;;24.83;100.00;100453.13;7394263;19;20411;-53
2023/08/16 11:57:43;;;;;;;0.10;0.03;;;;;;;25.13;100.00;100447.59;7395009;19;20006;-53
2023/08/16 12:00:10;;;;;;;0.68;0.30;;;;;;;24.51;100.00;100444.91;7398509;19;20392;-53
2023/08/16 12:02:37;;;;;;;0.10;0.00;;;;;;;23.96;100.00;100447.06;7398024;19;20018;-53
2023/08/16 12:05:11;;;;;;;0.15;0.10;;;;;;;24.16;100.00;100445.56;7395609;19;20043;-54
2023/08/16 12:07:47;;;;;;;0.17;0.00;;;;;;;24.02;100.00;100447.69;7396145;19;20078;-54
2023/08/16 12:10:25;;;;;;;0.20;0.00;;;;;;;32.80;87.30;100436.81;7398705;19;20554;-54
2023/08/16 12:12:54;;;;;;;0.10;0.10;;;;;;;26.30;100.00;100450.38;7396805;19;20021;-54
2023/08/16 12:15:25;;;;;;;0.95;0.30;;;;;;;23.95;100.00;100447.63;7394454;19;20006;-54
2023/08/16 12:17:52;;;;;;;0.10;0.00;;;;;;;23.60;100.00;100440.44;7394618;19;20086;-54
2023/08/16 12:20:19;;;;;;;0.13;0.03;;;;;;;27.94;100.00;100443.22;7398884;19;20007;-54
2023/08/16 12:22:45;;;;;;;1.40;0.20;;;;;;;24.35;100.00;100445.34;7398035;19;20086;-54
2023/08/16 12:25:12;;;;;;;0.10;0.10;;;;;;;24.74;100.00;100445.06;7393677;19;20013;-55
2023/08/16 12:27:38;;;;;;;0.98;0.10;;;;;;;24.22;100.00;100448.25;7394704;19;20014;-55
2023/08/16 12:30:05;;;;;;;0.20;0.10;;;;;;;24.77;100.00;100438.28;7396710;19;20055;-54